Time,TemperatureF,DewpointF,PressureIn,WindDirection,WindDirectionDegrees,WindSpeedMPH,WindSpeedGustMPH,Humidity,HourlyPrecipIn,Conditions,Clouds,dailyrainin,SoftwareType,DateUTC
2014-01-22 00:21:00,45.0,6.0,30.21,ENE,66,0.0,4.0,20,0.00,,,0.00,,2014-01-22 08:21:00,
2014-01-22 00:42:00,45.0,5.0,30.21,ENE,66,4.0,5.0,19,0.00,,,0.00,,2014-01-22 08:42:00,
2014-01-22 00:52:00,45.0,6.0,30.19,ENE,66,0.0,4.0,20,0.00,,,0.00,,2014-01-22 08:52:00,
2014-01-22 01:11:00,45.0,6.0,30.19,ENE,66,0.0,0.0,20,0.00,,,0.00,,2014-01-22 09:11:00,
2014-01-22 01:22:00,44.0,6.0,30.19,ENE,66,0.0,0.0,20,0.00,,,0.00,,2014-01-22 09:22:00,
2014-01-22 01:53:00,42.0,5.0,30.17,ENE,66,5.0,6.0,21,0.00,,,0.00,,2014-01-22 09:53:00,
2014-01-22 02:22:00,41.0,5.0,30.17,ENE,66,5.0,7.0,22,0.00,,,0.00,,2014-01-22 10:22:00,
2014-01-22 02:42:00,41.0,5.0,30.17,ENE,66,4.0,5.0,22,0.00,,,0.00,,2014-01-22 10:42:00,
2014-01-22 02:53:00,41.0,5.0,30.16,ENE,66,3.0,6.0,22,0.00,,,0.00,,2014-01-22 10:53:00,
2014-01-22 03:22:00,41.0,6.0,30.15,ENE,66,0.0,4.0,23,0.00,,,0.00,,2014-01-22 11:22:00,
2014-01-22 03:42:00,41.0,5.0,30.15,ENE,66,3.0,6.0,22,0.00,,,0.00,,2014-01-22 11:42:00,
2014-01-22 03:52:00,40.0,4.0,30.15,ENE,66,3.0,5.0,22,0.00,,,0.00,,2014-01-22 11:52:00,
2014-01-22 04:22:00,39.0,4.0,30.14,ENE,66,2.0,7.0,23,0.00,,,0.00,,2014-01-22 12:22:00,
2014-01-22 04:52:00,39.0,4.0,30.11,ENE,65,5.0,6.0,23,0.00,,,0.00,,2014-01-22 12:52:00,
2014-01-22 05:11:00,39.0,4.0,30.11,ENE,65,4.0,6.0,23,0.00,,,0.00,,2014-01-22 13:11:00,
2014-01-22 05:22:00,38.0,4.0,30.12,ENE,65,5.0,6.0,24,0.00,,,0.00,,2014-01-22 13:22:00,
2014-01-22 05:42:00,38.0,4.0,30.12,ENE,65,4.0,6.0,24,0.00,,,0.00,,2014-01-22 13:42:00,
2014-01-22 05:52:00,39.0,5.0,30.12,ENE,65,0.0,1.0,24,0.00,,,0.00,,2014-01-22 13:52:00,
2014-01-22 06:12:00,39.0,5.0,30.12,ENE,65,0.0,0.0,24,0.00,,,0.00,,2014-01-22 14:12:00,
2014-01-22 06:21:00,39.0,5.0,30.12,ENE,65,2.0,6.0,24,0.00,,,0.00,,2014-01-22 14:21:00,
2014-01-22 07:21:00,39.0,5.0,30.14,ENE,65,0.0,0.0,24,0.00,,,0.00,,2014-01-22 15:21:00,
2014-01-22 07:53:00,41.0,8.0,30.14,ENE,65,0.0,4.0,25,0.00,,,0.00,,2014-01-22 15:53:00,
2014-01-22 08:13:00,42.0,7.0,30.14,ENE,65,0.0,1.0,23,0.00,,,0.00,,2014-01-22 16:13:00,
2014-01-22 08:23:00,42.0,7.0,30.14,ENE,65,3.0,4.0,23,0.00,,,0.00,,2014-01-22 16:23:00,
2014-01-22 08:42:00,42.0,7.0,30.14,ENE,65,4.0,5.0,23,0.00,,,0.00,,2014-01-22 16:42:00,
2014-01-22 08:53:00,46.0,8.0,30.13,ENE,67,1.0,5.0,21,0.00,,,0.00,,2014-01-22 16:53:00,
2014-01-22 09:12:00,48.0,9.0,30.13,ENE,67,0.0,2.0,20,0.00,,,0.00,,2014-01-22 17:12:00,
2014-01-22 09:22:00,53.0,8.0,30.14,ENE,67,0.0,5.0,16,0.00,,,0.00,,2014-01-22 17:22:00,
2014-01-22 09:52:00,56.0,7.0,30.12,NE,38,7.0,10.0,14,0.00,,,0.00,,2014-01-22 17:52:00,
2014-01-22 10:21:00,59.0,6.0,30.11,NNE,21,5.0,9.0,12,0.00,,,0.00,,2014-01-22 18:21:00,
2014-01-22 10:42:00,60.0,5.0,30.11,NNE,21,4.0,8.0,11,0.00,,,0.00,,2014-01-22 18:42:00,
2014-01-22 10:52:00,62.0,5.0,30.12,NNE,21,4.0,8.0,10,0.00,,,0.00,,2014-01-22 18:52:00,
2014-01-22 11:21:00,64.0,6.0,30.09,NNE,21,6.0,9.0,10,0.00,,,0.00,,2014-01-22 19:21:00,
2014-01-22 11:52:00,63.0,8.0,30.09,NNE,21,4.0,10.0,11,0.00,,,0.00,,2014-01-22 19:52:00,
2014-01-22 12:21:00,63.0,8.0,30.06,NNE,21,2.0,7.0,11,0.00,,,0.00,,2014-01-22 20:21:00,
2014-01-22 12:52:00,66.0,6.0,30.03,NNE,21,0.0,2.0,9,0.00,,,0.00,,2014-01-22 20:52:00,
2014-01-22 13:21:00,69.0,5.0,30.01,NNE,21,0.0,2.0,8,0.00,,,0.00,,2014-01-22 21:21:00,
2014-01-22 13:43:00,69.0,2.0,30.01,NNE,21,0.0,2.0,7,0.00,,,0.00,,2014-01-22 21:43:00,
2014-01-22 13:53:00,70.0,3.0,30.00,NNE,21,1.0,3.0,7,0.00,,,0.00,,2014-01-22 21:53:00,
2014-01-22 14:23:00,70.0,3.0,29.98,NNE,21,0.0,4.0,7,0.00,,,0.00,,2014-01-22 22:23:00,
2014-01-22 14:53:00,71.0,1.0,29.97,NNE,21,0.0,3.0,6,0.00,,,0.00,,2014-01-22 22:53:00,
2014-01-22 15:22:00,72.0,1.0,29.96,NNE,21,0.0,1.0,6,0.00,,,0.00,,2014-01-22 23:22:00,
2014-01-22 15:52:00,71.0,1.0,29.96,NNE,21,0.0,0.0,6,0.00,,,0.00,,2014-01-22 23:52:00,
2014-01-22 16:21:00,71.0,1.0,29.95,NNE,21,0.0,0.0,6,0.00,,,0.00,,2014-01-23 00:21:00,
2014-01-22 16:42:00,71.0,1.0,29.95,NNE,21,0.0,0.0,6,0.00,,,0.00,,2014-01-23 00:42:00,
2014-01-22 19:22:00,52.0,3.0,29.94,East,79,0.0,8.0,13,0.00,,,0.00,,2014-01-23 03:22:00,
2014-01-22 19:43:00,51.0,4.0,29.94,East,79,0.0,0.0,14,0.00,,,0.00,,2014-01-23 03:43:00,
2014-01-22 19:53:00,49.0,2.0,29.96,East,79,2.0,5.0,14,0.00,,,0.00,,2014-01-23 03:53:00,
2014-01-22 20:23:00,45.0,2.0,29.97,East,79,3.0,4.0,16,0.00,,,0.00,,2014-01-23 04:23:00,
2014-01-22 20:42:00,44.0,1.0,29.97,East,79,2.0,5.0,16,0.00,,,0.00,,2014-01-23 04:42:00,
2014-01-22 22:12:00,40.0,2.0,29.99,East,79,5.0,6.0,20,0.00,,,0.00,,2014-01-23 06:12:00,
2014-01-22 23:22:00,40.0,3.0,29.97,East,86,4.0,7.0,21,0.00,,,0.00,,2014-01-23 07:22:00,
2014-01-22 23:42:00,40.0,3.0,29.97,East,86,5.0,7.0,21,0.00,,,0.00,,2014-01-23 07:42:00,
2014-01-22 23:52:00,40.0,4.0,29.98,East,86,5.0,6.0,22,0.00,,,0.00,,2014-01-23 07:52:00,